createdAt,value
2018-12-19T05:05:55.740Z,3.93
2018-12-19T05:08:23.865Z,4.20
2018-12-19T05:10:53.889Z,4.73
2018-12-19T05:13:22.063Z,3.63
2018-12-19T05:15:50.196Z,4.20
2018-12-19T05:21:18.181Z,4.17
2018-12-19T05:27:01.403Z,4.90
2018-12-19T05:35:37.878Z,5.42
2018-12-19T05:41:40.625Z,4.60
2018-12-19T05:50:14.831Z,5.70
2018-12-19T05:55:45.294Z,5.87
2018-12-19T05:58:17.480Z,5.53
2018-12-19T06:04:00.833Z,5.93
2018-12-19T06:18:07.690Z,5.13
2018-12-19T06:20:35.931Z,6.42
2018-12-19T06:23:13.833Z,6.97
2018-12-19T06:25:42.027Z,6.57
2018-12-19T06:31:06.465Z,7.50
2018-12-19T06:33:35.760Z,7.53
2018-12-19T06:36:04.133Z,6.53
2018-12-19T06:38:32.255Z,7.70
2018-12-19T06:43:57.395Z,7.00
2018-12-19T06:55:16.240Z,7.30
2018-12-19T06:57:46.134Z,8.18
2018-12-19T07:03:29.742Z,7.30
2018-12-19T07:08:54.538Z,6.80
2018-12-19T07:11:35.302Z,7.70
2018-12-19T07:27:55.487Z,7.70
2018-12-19T07:30:33.646Z,7.90
2018-12-19T07:33:05.719Z,7.40
2018-12-19T07:38:36.411Z,7.43
2018-12-19T07:44:09.292Z,7.90
2018-12-19T07:58:31.518Z,8.80
2018-12-19T08:01:09.659Z,9.37
2018-12-19T08:09:40.684Z,10.87
2018-12-19T08:12:36.062Z,10.63
2018-12-19T08:18:03.499Z,10.97
2018-12-19T08:20:37.189Z,11.07
2018-12-19T08:23:12.978Z,11.27
2018-12-19T08:25:53.346Z,11.37
2018-12-19T08:28:28.351Z,10.50
2018-12-19T08:31:09.777Z,10.30
2018-12-19T08:33:43.743Z,10.65
2018-12-19T08:39:16.318Z,11.50
2018-12-19T08:41:58.430Z,11.95
2018-12-19T08:56:37.825Z,12.13
2018-12-19T08:59:20.417Z,12.63
2018-12-19T09:01:56.796Z,13.75
2018-12-19T09:04:29.963Z,13.23
2018-12-19T09:07:01.547Z,13.15
2018-12-19T09:12:27.535Z,12.10
2018-12-19T09:15:01.809Z,11.73
2018-12-19T09:17:37.382Z,13.40
2018-12-19T09:23:17.303Z,14.25
2018-12-19T09:32:01.314Z,14.95
2018-12-19T09:34:29.458Z,13.90
2018-12-19T09:37:18.605Z,14.87
2018-12-19T09:45:44.401Z,15.65
2018-12-19T10:05:48.546Z,17.70
2018-12-19T10:08:18.502Z,18.70
2018-12-19T10:15:34.297Z,18.62
2018-12-19T10:18:15.013Z,18.27
2018-12-19T10:20:51.294Z,19.00
2018-12-19T10:23:22.675Z,20.40
2018-12-19T10:28:51.036Z,19.50
2018-12-19T10:43:14.996Z,20.50
2018-12-19T10:46:01.659Z,18.80
2018-12-19T10:57:26.286Z,19.40
2018-12-19T11:02:50.546Z,20.90
2018-12-19T11:11:22.040Z,22.10
2018-12-19T11:14:09.838Z,23.13
2018-12-19T11:16:41.750Z,21.90
2018-12-19T11:19:17.135Z,22.97
2018-12-19T11:21:51.240Z,23.80
2018-12-19T11:24:21.010Z,22.63
2018-12-19T11:26:50.798Z,24.83
2018-12-19T11:29:35.971Z,23.87
2018-12-19T11:32:11.887Z,22.40
2018-12-19T17:44:13.532Z,23.20
2018-12-19T17:47:00.289Z,46.80
2018-12-19T17:49:34.522Z,46.60
2018-12-19T17:58:22.597Z,47.00
2018-12-19T18:00:56.555Z,50.47
2018-12-19T18:24:56.566Z,30.20
2018-12-19T18:30:28.160Z,33.03
2018-12-19T18:36:00.153Z,36.63
2018-12-19T18:38:31.977Z,33.50
2018-12-19T18:41:06.264Z,33.13
2018-12-19T18:43:37.693Z,32.53
2018-12-19T18:49:19.750Z,27.10
2018-12-19T21:36:50.909Z,37.53
2018-12-19T21:39:19.130Z,41.30
2018-12-19T21:44:49.246Z,44.87
2018-12-19T21:50:23.044Z,48.57
2018-12-19T21:52:57.561Z,50.37
2018-12-19T21:55:25.786Z,53.03
2018-12-19T21:57:54.078Z,53.13
2018-12-19T22:00:34.208Z,56.23
2018-12-19T22:09:07.683Z,61.00
2018-12-19T22:11:36.002Z,59.70
2018-12-19T22:17:08.823Z,62.53
2018-12-19T22:19:37.082Z,53.17
2018-12-19T22:22:05.295Z,60.43
2018-12-19T22:24:37.149Z,54.93
2018-12-19T22:27:05.491Z,50.67
2018-12-19T22:29:33.709Z,52.50
2018-12-19T22:32:05.027Z,55.05
2018-12-19T22:34:33.332Z,52.13
2018-12-19T22:37:01.469Z,55.73
2018-12-19T22:39:29.780Z,57.23
2018-12-19T22:41:57.938Z,58.67
2018-12-19T22:44:26.165Z,63.93
2018-12-19T22:46:54.533Z,64.60
2018-12-19T22:49:22.787Z,57.43
2018-12-19T22:51:51.040Z,48.33
2018-12-19T22:54:19.254Z,49.63
2018-12-19T22:56:47.407Z,45.30
2018-12-19T22:59:21.235Z,35.93
2018-12-19T23:01:55.030Z,40.80
2018-12-19T23:04:23.187Z,54.40
2018-12-19T23:06:51.481Z,58.00
2018-12-19T23:09:19.822Z,50.13
2018-12-19T23:11:48.037Z,67.93
2018-12-19T23:14:16.187Z,68.83
2018-12-19T23:16:44.385Z,59.70
2018-12-19T23:19:12.649Z,64.37
2018-12-19T23:21:41.006Z,75.37
2018-12-19T23:24:09.239Z,82.30
2018-12-19T23:26:37.531Z,77.13
2018-12-19T23:29:05.862Z,75.47
2018-12-19T23:31:34.292Z,73.37
2018-12-19T23:34:02.527Z,71.43
2018-12-19T23:36:30.902Z,98.03
2018-12-19T23:38:59.164Z,98.00
2018-12-19T23:41:27.441Z,83.93
2018-12-19T23:43:56.695Z,79.40
2018-12-19T23:46:24.829Z,79.00
2018-12-19T23:48:53.003Z,69.47
2018-12-19T23:51:21.186Z,74.03
2018-12-19T23:53:49.338Z,84.33
2018-12-19T23:56:17.483Z,62.37
2018-12-19T23:58:47.022Z,61.87
